createdAt,value
2022-11-29T00:00:09.727Z,88.10
2022-11-29T00:01:02.522Z,88.21
2022-11-29T00:01:49.245Z,88.21
2022-11-29T00:02:35.847Z,87.90
2022-11-29T00:03:22.582Z,88.01
2022-11-29T00:04:10.184Z,87.83
2022-11-29T00:04:56.761Z,87.71
2022-11-29T00:05:44.100Z,87.86
2022-11-29T00:06:33.131Z,88.02
2022-11-29T00:07:20.990Z,87.88
2022-11-29T00:08:07.846Z,87.99
2022-11-29T00:08:57.399Z,88.02
2022-11-29T00:09:44.411Z,87.93
2022-11-29T00:10:31.110Z,87.98
2022-11-29T00:11:41.696Z,87.83
2022-11-29T00:12:28.243Z,88.26
2022-11-29T00:13:15.037Z,88.28
2022-11-29T00:14:01.829Z,88.22
2022-11-29T00:14:48.962Z,88.08
2022-11-29T00:15:37.174Z,88.06
2022-11-29T00:16:23.881Z,88.16
2022-11-29T00:17:10.719Z,88.15
2022-11-29T00:17:57.371Z,88.24
2022-11-29T00:18:43.982Z,87.93
2022-11-29T00:19:32.671Z,87.96
2022-11-29T00:20:19.487Z,87.88
2022-11-29T00:21:07.805Z,88.10
2022-11-29T00:21:54.440Z,87.93
2022-11-29T00:22:41.261Z,88.02
2022-11-29T00:23:30.261Z,87.87
2022-11-29T00:24:17.695Z,88.21
2022-11-29T00:25:05.830Z,88.14
2022-11-29T00:25:52.912Z,88.08
2022-11-29T00:26:39.799Z,88.07
2022-11-29T00:27:26.416Z,88.13
2022-11-29T00:28:13.172Z,88.00
2022-11-29T00:28:59.914Z,88.22
2022-11-29T00:29:46.561Z,88.17
2022-11-29T00:30:34.323Z,88.02
2022-11-29T00:31:27.499Z,88.01
2022-11-29T00:32:14.142Z,88.45
2022-11-29T00:33:00.919Z,88.54
2022-11-29T00:33:48.348Z,88.28
2022-11-29T00:34:35.192Z,88.35
2022-11-29T00:35:22.062Z,88.15
2022-11-29T00:36:09.149Z,88.28
2022-11-29T00:36:56.056Z,88.41
2022-11-29T00:37:42.657Z,88.17
2022-11-29T00:38:29.643Z,88.24
2022-11-29T00:39:16.807Z,88.34
2022-11-29T00:40:05.602Z,88.29
2022-11-29T00:40:52.695Z,88.13
2022-11-29T00:41:40.302Z,88.05
2022-11-29T00:42:27.233Z,88.20
2022-11-29T00:43:13.900Z,88.01
2022-11-29T00:44:00.615Z,88.17
2022-11-29T00:44:48.301Z,88.20
2022-11-29T00:45:35.111Z,87.83
2022-11-29T00:46:22.558Z,87.93
2022-11-29T00:47:09.614Z,87.92
2022-11-29T00:47:56.347Z,87.85
2022-11-29T00:48:43.153Z,87.64
2022-11-29T00:49:29.932Z,87.85
2022-11-29T00:50:16.847Z,87.88
2022-11-29T00:51:06.141Z,87.97
2022-11-29T00:51:53.112Z,87.83
2022-11-29T00:52:39.755Z,87.86
2022-11-29T00:53:26.535Z,87.97
2022-11-29T00:54:13.217Z,88.10
2022-11-29T00:55:00.105Z,88.23
2022-11-29T00:55:51.923Z,87.98
2022-11-29T00:56:39.089Z,87.92
2022-11-29T00:57:25.819Z,87.94
2022-11-29T00:58:12.683Z,88.02
2022-11-29T00:58:59.581Z,87.86
2022-11-29T00:59:46.206Z,87.87
2022-11-29T01:00:33.187Z,87.72
2022-11-29T01:01:19.863Z,87.76
2022-11-29T01:02:07.458Z,87.65
2022-11-29T01:02:54.303Z,87.88
2022-11-29T01:03:41.037Z,87.83
2022-11-29T01:04:28.823Z,87.97
2022-11-29T01:05:15.600Z,87.81
2022-11-29T01:06:06.838Z,87.74
2022-11-29T01:06:56.196Z,88.14
2022-11-29T01:07:46.008Z,87.93
2022-11-29T01:08:33.722Z,88.11
2022-11-29T01:09:20.996Z,87.82
2022-11-29T01:10:08.866Z,87.94
2022-11-29T01:11:12.039Z,87.92
2022-11-29T01:12:04.046Z,87.98
2022-11-29T01:12:54.633Z,88.28
2022-11-29T01:13:42.483Z,87.88
2022-11-29T01:14:29.223Z,88.06
2022-11-29T01:15:16.050Z,87.84
2022-11-29T01:16:04.912Z,88.24
2022-11-29T01:16:51.684Z,88.20
2022-11-29T01:17:40.796Z,87.89
2022-11-29T01:18:28.118Z,87.83
2022-11-29T01:19:14.882Z,87.98
2022-11-29T01:20:02.368Z,87.92
2022-11-29T01:21:24.732Z,88.13
2022-11-29T01:22:13.759Z,87.78
2022-11-29T01:23:03.106Z,87.83
2022-11-29T01:23:51.657Z,87.97
2022-11-29T01:24:38.712Z,88.11
2022-11-29T01:25:26.177Z,88.02
2022-11-29T01:26:17.117Z,87.97
2022-11-29T01:27:03.999Z,88.24
2022-11-29T01:27:50.767Z,88.33
2022-11-29T01:28:40.795Z,88.18
2022-11-29T01:29:27.641Z,88.06
2022-11-29T01:30:14.879Z,88.21
2022-11-29T01:31:12.513Z,88.07
2022-11-29T01:32:00.390Z,87.94
2022-11-29T01:32:47.194Z,87.87
2022-11-29T01:33:35.849Z,88.10
2022-11-29T01:34:26.054Z,88.09
2022-11-29T01:35:12.753Z,88.34
2022-11-29T01:35:59.704Z,87.98
2022-11-29T01:36:46.441Z,88.40
2022-11-29T01:37:33.245Z,88.24
2022-11-29T01:38:21.572Z,88.17
2022-11-29T01:39:10.271Z,88.01
2022-11-29T01:40:00.931Z,88.15
2022-11-29T01:41:05.778Z,88.25
2022-11-29T01:41:52.394Z,88.26
2022-11-29T01:42:39.091Z,88.34
2022-11-29T01:43:26.047Z,88.14
2022-11-29T01:44:12.594Z,88.34
2022-11-29T01:45:18.957Z,88.04
2022-11-29T01:46:06.075Z,88.40
2022-11-29T01:46:54.348Z,88.43
2022-11-29T01:47:45.478Z,88.49
2022-11-29T01:48:33.698Z,88.47
2022-11-29T01:49:32.914Z,88.25
2022-11-29T01:50:21.096Z,88.18
2022-11-29T01:51:07.846Z,88.17
2022-11-29T01:52:01.124Z,87.92
2022-11-29T01:52:48.287Z,88.29
2022-11-29T01:53:34.943Z,88.17
2022-11-29T01:54:22.656Z,87.89
2022-11-29T01:55:10.110Z,87.98
2022-11-29T01:56:03.974Z,87.86
2022-11-29T01:56:53.086Z,88.03
2022-11-29T01:57:43.239Z,88.25
2022-11-29T01:58:30.406Z,88.05
2022-11-29T01:59:21.806Z,87.68
2022-11-29T02:00:15.146Z,88.08
2022-11-29T02:01:11.859Z,87.98
2022-11-29T02:02:12.752Z,88.00
2022-11-29T02:03:10.191Z,87.92
2022-11-29T02:03:56.903Z,88.24
2022-11-29T02:04:46.910Z,88.08
2022-11-29T02:05:33.989Z,88.01
2022-11-29T02:06:20.873Z,87.97
2022-11-29T02:07:08.105Z,88.09
2022-11-29T02:07:59.244Z,88.06
2022-11-29T02:08:46.038Z,88.08
2022-11-29T02:09:32.767Z,88.06
2022-11-29T02:10:20.231Z,87.95
2022-11-29T02:11:45.839Z,87.89
2022-11-29T02:12:32.444Z,87.92
2022-11-29T02:13:45.621Z,88.02
2022-11-29T02:14:56.399Z,88.01
2022-11-29T02:15:56.528Z,88.00
2022-11-29T02:17:04.049Z,87.99
2022-11-29T02:18:05.428Z,88.07
2022-11-29T02:19:39.686Z,87.99
2022-11-29T02:20:44.948Z,88.07
2022-11-29T02:21:45.692Z,88.11
2022-11-29T02:22:44.373Z,87.81
2022-11-29T02:23:58.464Z,87.83
2022-11-29T02:25:06.501Z,87.83
2022-11-29T02:26:37.929Z,88.05
2022-11-29T02:28:12.643Z,87.78
2022-11-29T02:29:24.285Z,87.65
2022-11-29T02:30:42.899Z,87.69
2022-11-29T02:31:57.427Z,87.97
2022-11-29T02:33:16.024Z,87.49
2022-11-29T02:34:08.628Z,87.79
2022-11-29T02:35:14.588Z,87.77
2022-11-29T02:36:15.895Z,87.96
2022-11-29T02:37:40.773Z,88.14
2022-11-29T02:38:48.692Z,88.21
2022-11-29T02:40:10.703Z,88.19
2022-11-29T02:41:11.264Z,88.16
2022-11-29T02:42:31.373Z,88.24
2022-11-29T02:43:35.879Z,88.11
2022-11-29T02:44:41.672Z,87.91
2022-11-29T02:45:40.333Z,87.99
2022-11-29T02:46:45.575Z,87.94
2022-11-29T02:47:48.656Z,88.06
2022-11-29T02:48:53.635Z,88.24
2022-11-29T02:50:00.780Z,88.26
2022-11-29T02:50:56.083Z,88.29
2022-11-29T02:52:26.055Z,88.26
2022-11-29T02:53:22.872Z,88.26
2022-11-29T02:54:25.714Z,87.96
2022-11-29T02:55:44.888Z,87.98
2022-11-29T02:56:53.552Z,88.14
2022-11-29T02:58:01.501Z,87.99
2022-11-29T02:59:06.596Z,87.94
2022-11-29T03:00:33.151Z,87.64
2022-11-29T03:01:37.273Z,87.88
2022-11-29T03:02:48.425Z,87.63
2022-11-29T03:04:15.581Z,87.61
2022-11-29T03:05:35.676Z,87.86
2022-11-29T03:06:36.554Z,87.89
2022-11-29T03:07:45.119Z,87.72
2022-11-29T03:08:52.993Z,87.75
2022-11-29T03:09:55.635Z,87.68
2022-11-29T03:10:51.550Z,87.56
2022-11-29T03:11:56.842Z,87.29
2022-11-29T03:12:51.876Z,87.10
2022-11-29T03:14:20.278Z,87.36
2022-11-29T03:15:18.520Z,87.19
2022-11-29T03:16:42.872Z,87.29
2022-11-29T03:17:52.993Z,87.34
2022-11-29T03:19:04.146Z,87.27
2022-11-29T03:20:21.917Z,87.25
2022-11-29T03:21:16.984Z,87.21
2022-11-29T03:22:17.307Z,87.16
2022-11-29T03:23:36.148Z,87.20
2022-11-29T03:24:35.568Z,87.09
2022-11-29T03:25:31.414Z,87.03
2022-11-29T03:26:35.416Z,87.27
2022-11-29T03:27:50.619Z,87.06
2022-11-29T03:28:51.209Z,87.28
2022-11-29T03:29:50.423Z,87.34
2022-11-29T03:30:44.085Z,87.01
2022-11-29T03:31:43.538Z,87.34
2022-11-29T03:32:54.456Z,87.32
2022-11-29T03:34:18.097Z,87.50
2022-11-29T03:35:24.634Z,87.48
2022-11-29T03:36:36.061Z,87.37
2022-11-29T03:37:50.289Z,87.12
2022-11-29T03:38:44.998Z,87.08
2022-11-29T03:39:43.275Z,87.34
2022-11-29T03:40:45.564Z,87.13
2022-11-29T03:41:48.898Z,87.21
2022-11-29T03:42:41.631Z,87.61
2022-11-29T03:43:45.700Z,87.21
2022-11-29T03:44:41.774Z,87.19
2022-11-29T03:45:39.512Z,87.60
2022-11-29T03:46:56.760Z,87.52
2022-11-29T03:47:59.984Z,87.75
2022-11-29T03:48:54.460Z,87.51
2022-11-29T03:49:52.530Z,87.52
2022-11-29T03:50:44.980Z,87.39
2022-11-29T03:51:53.103Z,87.20
2022-11-29T03:52:42.206Z,87.26
2022-11-29T03:53:37.786Z,87.28
2022-11-29T03:54:56.986Z,87.32
2022-11-29T03:56:04.957Z,87.37
2022-11-29T03:56:51.755Z,87.28
2022-11-29T03:58:02.049Z,87.54
2022-11-29T03:59:05.136Z,87.62
2022-11-29T04:00:04.108Z,87.43
2022-11-29T04:01:37.425Z,87.36
2022-11-29T04:02:58.492Z,87.30
2022-11-29T04:04:15.581Z,87.33
2022-11-29T04:05:17.037Z,87.45
2022-11-29T04:06:20.470Z,87.50
2022-11-29T04:07:32.973Z,87.50
2022-11-29T04:08:43.644Z,87.35
2022-11-29T04:09:41.391Z,87.48
2022-11-29T04:10:55.049Z,87.34
2022-11-29T04:12:18.784Z,87.30
2022-11-29T04:13:43.068Z,87.29
2022-11-29T04:14:44.807Z,87.30
2022-11-29T04:15:46.886Z,87.22
2022-11-29T04:16:45.515Z,87.43
2022-11-29T04:17:35.133Z,87.42
2022-11-29T04:18:52.296Z,87.47
2022-11-29T04:19:59.097Z,87.16
2022-11-29T04:20:51.356Z,87.44
2022-11-29T04:21:56.206Z,87.26
2022-11-29T04:22:56.416Z,87.24
2022-11-29T04:24:21.258Z,87.46
2022-11-29T04:25:41.993Z,87.61
2022-11-29T04:27:05.418Z,87.48
2022-11-29T04:27:52.000Z,87.35
2022-11-29T04:29:12.179Z,87.61
2022-11-29T04:30:19.066Z,87.38
2022-11-29T04:31:52.671Z,87.41
2022-11-29T04:32:57.735Z,87.66
2022-11-29T04:34:17.604Z,88.10
2022-11-29T04:35:31.955Z,87.92
2022-11-29T04:36:40.171Z,87.73
2022-11-29T04:37:44.771Z,87.97
2022-11-29T04:39:04.367Z,87.97
2022-11-29T04:40:24.813Z,88.26
2022-11-29T04:41:44.403Z,88.39
2022-11-29T04:42:50.144Z,88.39
2022-11-29T04:44:07.543Z,88.36
2022-11-29T04:45:15.382Z,88.49
2022-11-29T04:46:23.672Z,88.32
2022-11-29T04:47:15.870Z,88.53
2022-11-29T04:48:21.311Z,88.83
2022-11-29T04:49:26.901Z,88.92
2022-11-29T04:50:42.882Z,88.95
2022-11-29T04:51:45.081Z,88.65
2022-11-29T04:52:56.464Z,88.67
2022-11-29T04:54:24.126Z,88.92
2022-11-29T04:55:43.879Z,89.27
2022-11-29T04:56:44.219Z,89.28
2022-11-29T04:57:40.124Z,89.27
2022-11-29T04:58:55.234Z,89.11
2022-11-29T05:00:02.675Z,89.44
2022-11-29T05:01:04.281Z,89.56
2022-11-29T05:02:50.804Z,89.52
2022-11-29T05:03:57.250Z,89.30
2022-11-29T05:05:02.047Z,89.16
2022-11-29T05:06:09.584Z,89.49
2022-11-29T05:07:12.430Z,89.25
2022-11-29T05:08:31.353Z,89.37
2022-11-29T05:09:46.587Z,88.98
2022-11-29T05:10:51.418Z,89.21
2022-11-29T05:12:01.999Z,89.33
2022-11-29T05:13:05.225Z,89.61
2022-11-29T05:14:06.004Z,89.68
2022-11-29T05:15:40.992Z,89.48
2022-11-29T05:16:53.490Z,89.64
2022-11-29T05:18:35.780Z,89.71
2022-11-29T05:19:50.436Z,90.11
2022-11-29T05:21:08.826Z,90.26
2022-11-29T05:22:01.022Z,90.30
2022-11-29T05:23:22.420Z,90.50
2022-11-29T05:24:47.549Z,90.68
2022-11-29T05:25:37.663Z,90.54
2022-11-29T05:26:45.891Z,90.75
2022-11-29T05:27:47.158Z,90.79
2022-11-29T05:28:40.283Z,90.97
2022-11-29T05:29:57.445Z,90.78
2022-11-29T05:31:12.412Z,91.05
2022-11-29T05:32:34.735Z,91.03
2022-11-29T05:33:52.605Z,91.41
2022-11-29T05:35:16.333Z,91.49
2022-11-29T05:36:18.907Z,91.42
2022-11-29T05:37:05.358Z,91.33
2022-11-29T05:38:02.192Z,91.20
2022-11-29T05:39:08.741Z,91.29
2022-11-29T05:39:55.460Z,91.71
2022-11-29T05:41:05.631Z,91.67
2022-11-29T05:42:28.948Z,91.70
2022-11-29T05:43:36.737Z,91.85
2022-11-29T05:44:42.027Z,91.99
2022-11-29T05:45:46.615Z,91.56
2022-11-29T05:46:54.199Z,91.71
2022-11-29T05:48:21.896Z,91.69
2022-11-29T05:49:25.209Z,91.54
2022-11-29T05:50:32.483Z,91.88
2022-11-29T05:51:29.174Z,91.78
2022-11-29T05:52:33.301Z,91.94
2022-11-29T05:53:55.167Z,92.08
2022-11-29T05:55:06.067Z,91.95
2022-11-29T05:56:02.509Z,92.18
2022-11-29T05:57:06.440Z,92.00
2022-11-29T05:58:31.507Z,92.21
2022-11-29T05:59:28.517Z,92.10
2022-11-29T06:00:19.008Z,92.09
2022-11-29T06:01:33.862Z,92.04
2022-11-29T06:02:31.651Z,92.07
2022-11-29T06:03:56.607Z,92.08
2022-11-29T06:05:04.702Z,92.15
2022-11-29T06:06:01.252Z,92.15
2022-11-29T06:07:15.011Z,92.35
2022-11-29T06:08:13.416Z,92.16
2022-11-29T06:09:13.962Z,92.32
2022-11-29T06:10:11.552Z,92.35
2022-11-29T06:11:12.046Z,92.08
2022-11-29T06:12:23.046Z,92.45
2022-11-29T06:13:38.347Z,92.27
2022-11-29T06:14:49.303Z,92.57
2022-11-29T06:16:06.271Z,92.59
2022-11-29T06:17:18.825Z,92.33
2022-11-29T06:18:34.319Z,92.64
2022-11-29T06:19:42.485Z,92.29
2022-11-29T06:20:48.426Z,92.21
2022-11-29T06:21:52.503Z,92.44
2022-11-29T06:23:25.464Z,92.43
2022-11-29T06:24:30.015Z,92.18
2022-11-29T06:25:26.704Z,92.35
2022-11-29T06:26:58.224Z,92.54
2022-11-29T06:28:10.463Z,92.48
2022-11-29T06:29:15.319Z,92.53
2022-11-29T06:30:09.140Z,92.45
2022-11-29T06:31:48.230Z,92.15
2022-11-29T06:32:56.301Z,92.35
2022-11-29T06:33:59.100Z,92.34
2022-11-29T06:35:05.117Z,92.18
2022-11-29T06:36:15.883Z,92.12
2022-11-29T06:37:16.890Z,92.20
2022-11-29T06:38:23.243Z,92.17
2022-11-29T06:39:12.300Z,92.47
2022-11-29T06:40:00.184Z,92.33
2022-11-29T06:40:48.692Z,92.18
2022-11-29T06:41:35.684Z,92.04
2022-11-29T06:42:22.454Z,92.43
2022-11-29T06:43:09.732Z,92.36
2022-11-29T06:43:57.123Z,92.26
2022-11-29T06:44:44.353Z,92.22
2022-11-29T06:45:31.631Z,92.39
2022-11-29T06:46:45.549Z,92.10
2022-11-29T06:48:01.776Z,92.47
2022-11-29T06:49:03.917Z,92.61
2022-11-29T06:50:10.506Z,92.23
2022-11-29T06:51:21.983Z,92.31
2022-11-29T06:52:22.754Z,92.38
2022-11-29T06:53:19.765Z,92.23
2022-11-29T06:54:14.637Z,91.90
2022-11-29T06:55:36.518Z,92.01
2022-11-29T06:56:29.231Z,92.13
2022-11-29T06:57:37.248Z,92.22
2022-11-29T06:58:42.135Z,92.20
2022-11-29T07:00:08.851Z,92.13
2022-11-29T07:01:41.758Z,91.98
2022-11-29T07:02:45.140Z,91.91
2022-11-29T07:03:51.982Z,91.85
2022-11-29T07:05:29.256Z,91.88
2022-11-29T07:06:23.733Z,91.84
2022-11-29T07:07:20.845Z,91.91
2022-11-29T07:08:26.238Z,91.94
2022-11-29T07:09:17.001Z,91.52
2022-11-29T07:10:08.300Z,91.53
2022-11-29T07:10:59.823Z,91.74
2022-11-29T07:11:47.751Z,91.52
2022-11-29T07:12:34.782Z,91.48
2022-11-29T07:13:22.417Z,91.16
2022-11-29T07:14:10.158Z,91.45
2022-11-29T07:14:58.044Z,91.23
2022-11-29T07:16:00.016Z,91.48
2022-11-29T07:17:02.233Z,91.28
2022-11-29T07:18:15.065Z,91.23
2022-11-29T07:19:07.743Z,91.25
2022-11-29T07:20:26.187Z,91.11
2022-11-29T07:21:39.492Z,90.98
2022-11-29T07:22:59.603Z,90.91
2022-11-29T07:24:04.622Z,90.90
2022-11-29T07:25:01.882Z,90.62
2022-11-29T07:26:10.261Z,90.85
2022-11-29T07:27:11.448Z,90.55
2022-11-29T07:28:29.006Z,90.82
2022-11-29T07:29:45.654Z,90.58
2022-11-29T07:30:50.978Z,90.12
2022-11-29T07:32:06.060Z,89.62
2022-11-29T07:33:05.821Z,89.45
2022-11-29T07:34:29.206Z,89.63
2022-11-29T07:35:29.295Z,89.49
2022-11-29T07:36:35.849Z,89.54
2022-11-29T07:37:40.921Z,89.55
2022-11-29T07:39:04.735Z,89.02
2022-11-29T07:40:14.199Z,89.01
2022-11-29T07:41:15.518Z,89.26
2022-11-29T07:42:44.879Z,89.22
2022-11-29T07:43:49.991Z,88.90
2022-11-29T07:44:47.489Z,88.94
2022-11-29T07:45:38.369Z,88.88
2022-11-29T07:46:25.753Z,88.72
2022-11-29T07:47:15.660Z,89.00
2022-11-29T07:48:04.063Z,88.47
2022-11-29T07:48:51.414Z,88.60
2022-11-29T07:49:39.218Z,88.66
2022-11-29T07:50:28.685Z,88.79
2022-11-29T07:51:15.572Z,88.61
2022-11-29T07:52:02.435Z,88.67
2022-11-29T07:52:50.008Z,88.63
2022-11-29T07:53:42.964Z,88.38
2022-11-29T07:54:30.349Z,88.37
2022-11-29T07:55:20.488Z,88.15
2022-11-29T07:56:07.301Z,88.00
2022-11-29T07:56:54.076Z,88.39
2022-11-29T07:57:40.595Z,88.69
2022-11-29T07:58:27.207Z,88.45
2022-11-29T07:59:16.741Z,88.49
2022-11-29T08:00:05.004Z,88.32
2022-11-29T08:00:58.215Z,87.79
2022-11-29T08:01:48.038Z,88.02
2022-11-29T08:02:34.944Z,88.42
2022-11-29T08:03:21.683Z,87.89
2022-11-29T08:04:09.738Z,87.51
2022-11-29T08:04:56.631Z,87.35
2022-11-29T08:05:47.195Z,87.81
2022-11-29T08:06:34.247Z,87.88
2022-11-29T08:07:21.187Z,88.02
2022-11-29T08:08:08.468Z,88.21
2022-11-29T08:08:58.364Z,88.22
2022-11-29T08:09:55.808Z,88.42
2022-11-29T08:10:47.973Z,88.49
2022-11-29T08:11:43.246Z,88.52
2022-11-29T08:12:38.210Z,88.76
2022-11-29T08:13:30.594Z,88.43
2022-11-29T08:14:21.784Z,88.68
2022-11-29T08:15:15.533Z,88.58
2022-11-29T08:16:16.685Z,88.58
2022-11-29T08:17:06.460Z,88.55
2022-11-29T08:17:56.487Z,88.33
2022-11-29T08:18:43.697Z,88.05
2022-11-29T08:19:30.718Z,88.33
2022-11-29T08:20:17.590Z,88.28
2022-11-29T08:21:07.862Z,88.31
2022-11-29T08:21:57.795Z,88.25
2022-11-29T08:22:44.854Z,88.25
2022-11-29T08:23:31.852Z,88.38
2022-11-29T08:24:19.070Z,88.20
2022-11-29T08:25:08.005Z,88.38
2022-11-29T08:26:00.008Z,87.83
2022-11-29T08:26:47.138Z,87.85
2022-11-29T08:27:37.747Z,87.55
2022-11-29T08:28:24.421Z,87.89
2022-11-29T08:29:11.266Z,87.59
2022-11-29T08:29:57.876Z,87.64
2022-11-29T08:30:47.232Z,87.71
2022-11-29T08:31:34.174Z,87.69
2022-11-29T08:32:20.948Z,87.78
2022-11-29T08:33:08.262Z,87.79
2022-11-29T08:33:54.804Z,87.51
2022-11-29T08:34:41.351Z,87.62
2022-11-29T08:35:28.259Z,87.53
2022-11-29T08:36:19.237Z,87.51
2022-11-29T08:37:05.992Z,87.41
2022-11-29T08:37:54.668Z,87.62
2022-11-29T08:38:41.253Z,87.53
2022-11-29T08:39:29.055Z,87.67
2022-11-29T08:40:17.366Z,87.37
2022-11-29T08:41:10.762Z,87.51
2022-11-29T08:41:57.362Z,87.39
2022-11-29T08:42:44.147Z,87.28
2022-11-29T08:43:31.145Z,87.10
2022-11-29T08:44:18.164Z,86.93
2022-11-29T08:45:06.245Z,86.62
2022-11-29T08:45:52.831Z,86.61
2022-11-29T08:46:58.060Z,86.88
2022-11-29T08:47:44.758Z,86.63
2022-11-29T08:48:33.069Z,86.39
2022-11-29T08:49:19.731Z,86.59
2022-11-29T08:50:24.576Z,86.35
2022-11-29T08:51:11.241Z,86.45
2022-11-29T08:52:17.403Z,86.83
2022-11-29T08:53:22.413Z,86.63
2022-11-29T08:54:09.105Z,86.78
2022-11-29T08:54:58.929Z,86.49
2022-11-29T08:55:50.441Z,86.75
2022-11-29T08:57:46.941Z,86.14
2022-11-29T08:58:33.776Z,86.29
2022-11-29T08:59:20.298Z,86.20
2022-11-29T09:00:07.859Z,86.58
2022-11-29T09:01:12.983Z,85.96
2022-11-29T09:01:59.526Z,85.84
2022-11-29T09:02:46.346Z,85.77
2022-11-29T09:03:52.381Z,86.55
2022-11-29T09:04:38.908Z,86.37
2022-11-29T09:05:26.802Z,86.23
2022-11-29T09:06:15.908Z,86.34
2022-11-29T09:07:02.617Z,86.12
2022-11-29T09:07:50.505Z,85.83
2022-11-29T09:08:37.376Z,85.74
2022-11-29T09:09:24.082Z,85.43
2022-11-29T09:10:12.081Z,85.17
2022-11-29T09:10:58.786Z,85.10
2022-11-29T09:11:49.233Z,85.34
2022-11-29T09:12:37.208Z,85.88
2022-11-29T09:13:24.258Z,85.57
2022-11-29T09:14:15.794Z,85.32
2022-11-29T09:15:05.676Z,85.57
2022-11-29T09:15:53.701Z,85.70
2022-11-29T09:16:40.968Z,85.38
2022-11-29T09:17:30.675Z,84.98
2022-11-29T09:18:17.516Z,85.48
2022-11-29T09:19:07.462Z,85.18
2022-11-29T09:19:56.506Z,85.34
2022-11-29T09:20:44.638Z,84.95
2022-11-29T09:21:34.041Z,84.78
2022-11-29T09:22:21.675Z,85.04
2022-11-29T09:23:08.249Z,85.32
2022-11-29T09:23:59.052Z,85.49
2022-11-29T09:24:48.291Z,84.20
2022-11-29T09:25:35.187Z,84.45
2022-11-29T09:26:24.065Z,84.66
2022-11-29T09:27:11.068Z,84.37
2022-11-29T09:28:01.993Z,83.92
2022-11-29T09:28:49.455Z,84.26
2022-11-29T09:29:36.347Z,84.51
2022-11-29T09:30:23.948Z,84.15
2022-11-29T09:31:18.105Z,84.49
2022-11-29T09:32:05.100Z,84.52
2022-11-29T09:32:51.709Z,84.68
2022-11-29T09:33:42.550Z,84.25
2022-11-29T09:34:29.129Z,84.37
2022-11-29T09:35:15.855Z,84.25
2022-11-29T09:36:03.832Z,84.15
2022-11-29T09:36:51.141Z,84.61
2022-11-29T09:37:38.009Z,83.95
2022-11-29T09:38:26.746Z,83.93
2022-11-29T09:39:17.698Z,83.46
2022-11-29T09:40:05.581Z,83.86
2022-11-29T09:41:01.158Z,83.53
2022-11-29T09:42:44.609Z,83.69
2022-11-29T09:44:01.842Z,83.60
2022-11-29T09:44:55.524Z,83.56
2022-11-29T09:45:49.383Z,83.01
2022-11-29T09:46:44.369Z,83.58
2022-11-29T09:47:45.974Z,83.37
2022-11-29T09:48:32.372Z,82.61
2022-11-29T09:49:37.550Z,83.32
2022-11-29T09:50:34.661Z,83.34
2022-11-29T09:51:56.863Z,83.25
2022-11-29T09:53:10.549Z,83.15
2022-11-29T09:53:57.099Z,83.56
2022-11-29T09:54:55.659Z,83.61
2022-11-29T09:56:07.061Z,82.43
2022-11-29T09:56:57.214Z,82.03
2022-11-29T09:57:46.724Z,82.72
2022-11-29T09:58:43.633Z,82.94
2022-11-29T09:59:43.454Z,82.62
2022-11-29T10:00:35.536Z,82.91
2022-11-29T10:01:31.323Z,82.92
2022-11-29T10:02:36.248Z,83.11
2022-11-29T10:03:31.905Z,82.40
2022-11-29T10:04:25.463Z,82.70
2022-11-29T10:05:22.080Z,82.79
2022-11-29T10:06:23.207Z,82.50
2022-11-29T10:07:26.426Z,82.62
2022-11-29T10:08:19.855Z,82.70
2022-11-29T10:09:33.563Z,82.72
2022-11-29T10:10:26.573Z,82.10
2022-11-29T10:11:20.218Z,82.25
2022-11-29T10:12:22.085Z,82.84
2022-11-29T10:13:31.485Z,82.30
2022-11-29T10:14:34.299Z,82.60
2022-11-29T10:15:29.378Z,82.64
2022-11-29T10:16:37.198Z,82.04
2022-11-29T10:17:54.003Z,81.53
2022-11-29T10:18:49.699Z,81.35
2022-11-29T10:19:43.045Z,82.05
2022-11-29T10:20:39.713Z,82.38
2022-11-29T10:21:36.521Z,82.20
2022-11-29T10:22:30.499Z,81.60
2022-11-29T10:23:25.530Z,81.99
2022-11-29T10:24:18.315Z,82.52
2022-11-29T10:25:10.452Z,82.70
2022-11-29T10:25:58.572Z,81.92
2022-11-29T10:26:45.792Z,82.40
2022-11-29T10:27:32.450Z,82.43
2022-11-29T10:28:22.388Z,82.67
2022-11-29T10:29:15.408Z,82.72
2022-11-29T10:30:02.659Z,82.14
2022-11-29T10:30:55.508Z,82.33
2022-11-29T10:31:49.560Z,82.78
2022-11-29T10:32:36.139Z,82.45
2022-11-29T10:33:30.121Z,82.54
2022-11-29T10:34:21.575Z,82.30
2022-11-29T10:35:17.894Z,82.70
2022-11-29T10:36:24.884Z,82.88
2022-11-29T10:37:17.674Z,83.30
2022-11-29T10:38:29.874Z,83.01
2022-11-29T10:39:42.301Z,82.93
2022-11-29T10:40:38.077Z,83.19
2022-11-29T10:41:25.835Z,81.81
2022-11-29T10:42:38.118Z,81.94
2022-11-29T10:43:26.330Z,82.65
2022-11-29T10:44:15.377Z,82.58
2022-11-29T10:45:04.386Z,82.32
2022-11-29T10:45:56.168Z,82.90
2022-11-29T10:46:43.314Z,83.14
2022-11-29T10:47:30.784Z,82.74
2022-11-29T10:48:21.168Z,82.63
2022-11-29T10:49:18.713Z,82.03
2022-11-29T10:50:05.923Z,82.48
2022-11-29T10:50:53.636Z,82.54
2022-11-29T10:51:40.409Z,83.21
2022-11-29T10:52:27.016Z,83.39
2022-11-29T10:53:17.310Z,83.78
2022-11-29T10:54:18.251Z,83.24
2022-11-29T10:55:05.551Z,83.34
2022-11-29T10:56:01.246Z,82.96
2022-11-29T10:56:48.540Z,83.17
2022-11-29T10:57:36.489Z,82.63
2022-11-29T10:58:28.477Z,83.40
2022-11-29T10:59:33.109Z,82.92
2022-11-29T11:00:20.119Z,82.82
2022-11-29T11:01:08.804Z,83.07
2022-11-29T11:01:56.475Z,83.56
2022-11-29T11:02:43.002Z,83.69
2022-11-29T11:03:38.302Z,83.00
2022-11-29T11:04:35.579Z,82.55
2022-11-29T11:05:26.733Z,82.65
2022-11-29T11:06:27.190Z,82.98
2022-11-29T11:07:29.326Z,83.26
2022-11-29T11:08:18.425Z,83.00
2022-11-29T11:09:34.155Z,82.59
2022-11-29T11:10:28.778Z,82.61
2022-11-29T11:11:26.957Z,82.47
2022-11-29T11:12:16.110Z,82.74
2022-11-29T11:13:11.804Z,81.52
2022-11-29T11:14:06.063Z,81.34
2022-11-29T11:15:16.812Z,81.91
2022-11-29T11:16:20.328Z,81.83
2022-11-29T11:17:32.487Z,81.58
2022-11-29T11:18:22.850Z,81.81
2022-11-29T11:19:28.576Z,81.83
2022-11-29T11:20:24.442Z,81.43
2022-11-29T11:21:14.187Z,80.83
2022-11-29T11:22:04.292Z,81.39
2022-11-29T11:23:00.795Z,81.52
2022-11-29T11:24:02.869Z,81.71
2022-11-29T11:25:05.596Z,81.91
2022-11-29T11:26:02.069Z,81.65
2022-11-29T11:26:48.716Z,81.98
2022-11-29T11:27:41.103Z,81.82
2022-11-29T11:28:34.506Z,81.93
2022-11-29T11:29:29.523Z,81.35
2022-11-29T11:30:28.824Z,81.26
2022-11-29T11:31:25.665Z,81.24
2022-11-29T11:32:19.326Z,81.03
2022-11-29T11:33:25.021Z,81.44
2022-11-29T11:34:34.315Z,81.14
2022-11-29T11:35:24.006Z,79.93
2022-11-29T11:36:19.815Z,80.28
2022-11-29T11:37:23.423Z,80.61
2022-11-29T11:38:17.499Z,80.77
2022-11-29T11:39:20.380Z,81.14
2022-11-29T11:40:28.798Z,81.80
2022-11-29T11:41:23.551Z,81.71
2022-11-29T11:42:34.004Z,81.21
2022-11-29T11:43:21.838Z,80.62
2022-11-29T11:44:53.618Z,80.84
2022-11-29T11:45:41.399Z,81.08
2022-11-29T11:46:53.492Z,80.68
2022-11-29T11:47:55.252Z,80.85
2022-11-29T11:48:42.470Z,81.40
2022-11-29T11:49:48.112Z,81.18
2022-11-29T11:50:57.654Z,80.84
2022-11-29T11:51:44.937Z,81.79
2022-11-29T11:52:50.680Z,81.51
2022-11-29T11:53:38.570Z,82.13
2022-11-29T11:54:27.949Z,81.20
2022-11-29T11:55:55.663Z,80.90
2022-11-29T11:56:45.582Z,81.01
2022-11-29T11:57:32.461Z,80.37
2022-11-29T11:58:23.762Z,80.53
2022-11-29T11:59:21.230Z,80.28
2022-11-29T12:01:02.981Z,80.73
2022-11-29T12:01:48.254Z,80.48
2022-11-29T12:02:40.574Z,80.83
2022-11-29T12:03:49.726Z,81.48
2022-11-29T12:04:38.232Z,81.19
2022-11-29T12:05:25.275Z,80.67
2022-11-29T12:06:28.847Z,80.38
2022-11-29T12:07:59.287Z,80.31
2022-11-29T12:08:36.721Z,80.42
2022-11-29T12:09:37.527Z,80.22
2022-11-29T12:10:28.876Z,80.09
2022-11-29T12:11:18.768Z,80.55
2022-11-29T12:12:11.470Z,80.60
2022-11-29T12:13:00.881Z,80.67
2022-11-29T12:14:00.019Z,80.35
2022-11-29T12:15:01.031Z,79.98
2022-11-29T12:15:51.622Z,80.32
2022-11-29T12:16:40.521Z,80.28
2022-11-29T12:17:49.132Z,80.82
2022-11-29T12:18:46.420Z,80.75
2022-11-29T12:19:44.087Z,80.52
2022-11-29T12:20:42.540Z,81.03
2022-11-29T12:21:37.747Z,80.95
2022-11-29T12:22:31.263Z,81.22
2022-11-29T12:23:31.313Z,80.54
2022-11-29T12:24:29.161Z,80.56
2022-11-29T12:25:26.081Z,80.41
2022-11-29T12:26:48.964Z,80.76
2022-11-29T12:27:26.147Z,80.34
2022-11-29T12:28:20.687Z,80.54